Terminal Aerodrome Forecast
Issued by NWS Amarillo, TX

Home | Current Version | Previous Version | Text Only | Print | Product List | Glossary On
Versions: 1 2 3 4 5 6 7 8 9 10 11 12 13 14 15 16 17 18 19
000
FTUS44 KAMA 221800 AAA
TAFDHT
TAF AMD
KDHT 221814Z 2218/2318 17015G25KT P6SM SCT025
     FM230100 18010KT P6SM BKN100
     FM231000 20010KT 6SM BR OVC020
     FM231500 20018KT P6SM BKN050=

USA.gov is the U.S. government's official web portal to all federal, state and local government web resources and services.